createdAt,value
2023-05-04T00:03:25.940Z,84.24
2023-05-04T00:08:31.789Z,84.73
2023-05-04T00:13:37.317Z,84.47
2023-05-04T00:18:42.748Z,83.72
2023-05-04T00:23:48.136Z,83.79
2023-05-04T00:28:54.441Z,84.12
2023-05-04T00:34:00.044Z,84.57
2023-05-04T00:39:05.640Z,84.53
2023-05-04T00:44:11.527Z,83.95
2023-05-04T00:49:17.422Z,84.86
2023-05-04T00:54:23.344Z,85.21
2023-05-04T00:59:29.405Z,85.18
2023-05-04T01:04:35.340Z,85.12
2023-05-04T01:09:45.340Z,84.94
2023-05-04T01:14:53.980Z,85.31
2023-05-04T01:19:59.370Z,85.63
2023-05-04T01:25:06.117Z,86.38
2023-05-04T01:30:18.514Z,86.44
2023-05-04T01:35:25.485Z,86.64
2023-05-04T01:40:31.407Z,86.53
2023-05-04T01:45:37.006Z,87.23
2023-05-04T01:50:42.382Z,87.60
2023-05-04T01:55:48.103Z,87.51
2023-05-04T02:00:53.821Z,87.67
2023-05-04T02:08:47.198Z,88.56
2023-05-04T02:13:52.744Z,88.19
2023-05-04T02:18:58.404Z,88.05
2023-05-04T02:24:06.330Z,88.06
2023-05-04T02:29:11.802Z,88.47
2023-05-04T02:34:18.079Z,88.98
2023-05-04T02:39:25.848Z,88.90
2023-05-04T02:44:31.469Z,88.84
2023-05-04T02:49:36.944Z,88.85
2023-05-04T02:54:42.349Z,89.12
2023-05-04T02:59:47.817Z,89.06
2023-05-04T03:04:53.871Z,89.60
2023-05-04T03:09:59.404Z,89.75
2023-05-04T03:15:06.468Z,89.68
2023-05-04T03:20:14.394Z,89.94
2023-05-04T03:25:20.805Z,89.50
2023-05-04T03:30:26.440Z,89.56
2023-05-04T03:35:33.891Z,90.03
2023-05-04T03:40:40.456Z,89.91
2023-05-04T03:45:46.023Z,89.98
2023-05-04T03:50:51.810Z,90.09
2023-05-04T03:55:58.341Z,90.14
2023-05-04T04:01:04.027Z,90.10
2023-05-04T04:06:10.831Z,89.91
2023-05-04T04:11:16.653Z,89.10
2023-05-04T04:16:22.376Z,87.23
2023-05-04T04:21:28.012Z,86.62
2023-05-04T04:26:34.093Z,86.20
2023-05-04T04:31:40.335Z,83.73
2023-05-04T04:36:46.202Z,83.19
2023-05-04T04:41:51.987Z,81.70
2023-05-04T04:46:57.932Z,80.34
2023-05-04T04:52:04.109Z,80.34
2023-05-04T04:57:10.419Z,75.19
2023-05-04T05:02:16.069Z,67.13
2023-05-04T05:07:21.764Z,63.09
2023-05-04T05:12:27.242Z,61.40
2023-05-04T05:17:35.674Z,59.36
2023-05-04T05:22:42.978Z,53.94
2023-05-04T05:27:48.781Z,48.51
2023-05-04T05:32:55.186Z,43.98
2023-05-04T05:38:02.144Z,39.17
2023-05-04T05:43:07.705Z,35.08
2023-05-04T05:48:13.583Z,30.88
2023-05-04T05:53:19.081Z,28.95
2023-05-04T05:58:24.723Z,27.53
2023-05-04T06:03:30.514Z,25.50
2023-05-04T06:08:36.851Z,24.31
2023-05-04T06:13:42.376Z,22.59
2023-05-04T06:18:48.238Z,21.92
2023-05-04T06:23:54.368Z,20.64
2023-05-04T06:29:00.546Z,19.70
2023-05-04T06:34:06.464Z,18.80
2023-05-04T06:39:12.920Z,17.75
2023-05-04T06:44:18.779Z,17.85
2023-05-04T06:49:24.423Z,16.96
2023-05-04T06:54:29.868Z,16.98
2023-05-04T06:59:35.410Z,17.23
2023-05-04T07:04:40.973Z,16.54
2023-05-04T07:09:50.784Z,15.92
2023-05-04T07:14:56.923Z,16.17
2023-05-04T07:20:04.893Z,15.94
2023-05-04T07:25:11.312Z,15.05
2023-05-04T07:30:17.613Z,15.76
2023-05-04T07:35:23.564Z,15.49
2023-05-04T07:40:29.183Z,15.13
2023-05-04T07:45:34.788Z,14.51
2023-05-04T07:50:40.457Z,14.44
2023-05-04T07:55:46.325Z,13.85
2023-05-04T08:00:52.080Z,14.45
2023-05-04T08:05:57.872Z,14.01
2023-05-04T08:11:16.303Z,13.45
2023-05-04T08:16:25.843Z,14.11
2023-05-04T08:21:31.330Z,14.17
2023-05-04T08:26:39.622Z,15.44
2023-05-04T08:31:45.097Z,17.11
2023-05-04T08:36:52.743Z,17.63
2023-05-04T08:41:58.497Z,17.19
2023-05-04T08:47:04.890Z,16.39
2023-05-04T08:52:11.857Z,16.51
2023-05-04T08:57:18.044Z,17.47
2023-05-04T09:02:24.555Z,19.06
2023-05-04T09:07:30.205Z,21.38
2023-05-04T09:12:37.835Z,22.58
2023-05-04T09:17:57.088Z,22.86
2023-05-04T09:23:08.309Z,20.94
2023-05-04T09:28:14.540Z,19.61
2023-05-04T09:33:29.533Z,18.87
2023-05-04T09:38:35.518Z,19.66
2023-05-04T09:43:43.077Z,18.97
2023-05-04T09:48:57.061Z,19.85
2023-05-04T09:54:03.839Z,18.93
2023-05-04T09:59:10.103Z,18.39
2023-05-04T10:04:15.871Z,18.75
2023-05-04T10:09:21.744Z,18.05
2023-05-04T10:14:30.249Z,17.46
2023-05-04T10:19:51.587Z,18.95
2023-05-04T10:25:29.068Z,17.45
2023-05-04T10:30:34.918Z,18.38
2023-05-04T10:35:52.101Z,18.92
2023-05-04T10:40:57.556Z,18.51
2023-05-04T10:46:03.303Z,17.58
2023-05-04T10:51:19.873Z,17.87
2023-05-04T10:56:26.750Z,17.10
2023-05-04T11:01:44.858Z,18.02
2023-05-04T11:06:59.862Z,17.94
2023-05-04T11:12:06.652Z,18.74
2023-05-04T11:22:24.366Z,18.14
2023-05-04T11:27:30.634Z,19.86
2023-05-04T11:32:38.088Z,20.26
2023-05-04T11:37:44.800Z,19.90
2023-05-04T11:42:52.849Z,18.86
2023-05-04T11:48:00.769Z,20.03
2023-05-04T11:53:09.208Z,20.97
2023-05-04T11:58:15.044Z,21.26
2023-05-04T12:03:32.641Z,20.32
2023-05-04T12:08:45.333Z,20.64
2023-05-04T12:14:01.703Z,21.00
2023-05-04T12:19:12.521Z,20.69
2023-05-04T12:24:18.912Z,21.28
2023-05-04T12:29:24.594Z,20.49
2023-05-04T12:34:30.407Z,20.53
2023-05-04T12:39:36.572Z,21.54
2023-05-04T12:44:44.172Z,21.67
2023-05-04T12:49:51.563Z,21.92
2023-05-04T12:54:58.262Z,22.77
2023-05-04T13:00:08.706Z,22.48
2023-05-04T13:05:17.866Z,22.42
2023-05-04T13:10:24.464Z,22.10
2023-05-04T13:15:30.191Z,23.24
2023-05-04T13:20:35.866Z,22.78
2023-05-04T13:25:42.267Z,22.31
2023-05-04T13:30:48.371Z,22.77
2023-05-04T13:35:56.156Z,24.70
2023-05-04T13:41:02.159Z,23.30
2023-05-04T13:46:07.944Z,23.12
2023-05-04T13:51:14.082Z,23.17
2023-05-04T13:56:19.624Z,23.82
2023-05-04T14:01:26.085Z,22.77
2023-05-04T14:06:32.985Z,22.68
2023-05-04T14:11:38.705Z,23.93
2023-05-04T14:16:46.857Z,23.62
2023-05-04T14:21:54.149Z,23.67
2023-05-04T14:27:00.021Z,24.43
2023-05-04T14:32:08.276Z,24.81
2023-05-04T14:37:13.971Z,24.53
2023-05-04T14:42:19.563Z,24.97
2023-05-04T14:47:25.247Z,25.34
2023-05-04T14:52:31.131Z,25.04
2023-05-04T14:57:36.639Z,25.40
2023-05-04T15:02:42.110Z,26.75
2023-05-04T15:07:47.996Z,26.22
2023-05-04T15:12:54.550Z,25.27
2023-05-04T15:18:00.264Z,26.01
2023-05-04T15:23:12.244Z,26.62
2023-05-04T15:28:18.059Z,27.43
2023-05-04T15:33:23.536Z,27.55
2023-05-04T15:38:28.960Z,27.73
2023-05-04T15:43:35.150Z,27.46
2023-05-04T15:48:40.676Z,28.53
2023-05-04T15:53:46.300Z,30.43
2023-05-04T15:58:52.628Z,29.48
2023-05-04T16:03:59.914Z,29.96
2023-05-04T16:09:08.714Z,29.93
2023-05-04T16:14:15.502Z,29.70
2023-05-04T16:19:23.662Z,29.24
2023-05-04T16:24:28.962Z,28.83
2023-05-04T16:29:34.597Z,28.67
2023-05-04T16:34:40.135Z,28.82
2023-05-04T16:39:46.093Z,29.44
2023-05-04T16:44:52.312Z,29.48
2023-05-04T16:49:57.816Z,29.45
2023-05-04T16:55:03.879Z,29.45
2023-05-04T17:00:13.310Z,29.92
2023-05-04T17:05:20.159Z,30.10
2023-05-04T17:10:25.753Z,30.27
2023-05-04T17:15:31.780Z,30.44
2023-05-04T17:20:37.754Z,30.73
2023-05-04T17:25:44.430Z,30.98
2023-05-04T17:30:51.016Z,31.15
2023-05-04T17:35:57.267Z,31.92
2023-05-04T17:41:02.732Z,32.09
2023-05-04T17:46:08.333Z,32.52
2023-05-04T17:51:14.955Z,32.71
2023-05-04T17:56:22.085Z,32.94
2023-05-04T18:01:27.641Z,33.15
2023-05-04T18:06:33.445Z,33.57
2023-05-04T18:11:39.031Z,34.15
2023-05-04T18:16:44.915Z,35.04
2023-05-04T18:21:51.664Z,37.95
2023-05-04T18:26:57.208Z,39.63
2023-05-04T18:32:07.966Z,41.52
2023-05-04T18:37:14.449Z,42.70
2023-05-04T18:42:19.882Z,43.20
2023-05-04T18:47:25.751Z,42.78
2023-05-04T18:52:31.859Z,42.15
2023-05-04T18:57:38.906Z,42.71
2023-05-04T19:02:44.540Z,44.84
2023-05-04T19:07:50.261Z,47.26
2023-05-04T19:12:55.987Z,47.62
2023-05-04T19:18:01.807Z,49.04
2023-05-04T19:23:10.311Z,50.28
2023-05-04T19:28:16.002Z,51.38
2023-05-04T19:33:21.679Z,52.70
2023-05-04T19:38:28.152Z,54.67
2023-05-04T19:43:33.650Z,55.85
2023-05-04T19:48:39.891Z,56.52
2023-05-04T19:53:45.540Z,56.26
2023-05-04T19:58:51.778Z,56.72
2023-05-04T20:03:57.461Z,57.42
2023-05-04T20:09:03.676Z,56.24
2023-05-04T20:14:09.149Z,54.20
2023-05-04T20:19:14.982Z,54.34
2023-05-04T20:24:20.532Z,57.55
2023-05-04T20:29:26.424Z,59.06
2023-05-04T20:34:31.995Z,59.93
2023-05-04T20:39:46.795Z,60.31
2023-05-04T20:44:58.648Z,61.60
2023-05-04T20:50:04.504Z,61.24
2023-05-04T20:55:20.147Z,62.01
2023-05-04T21:00:26.834Z,63.45
2023-05-04T21:05:32.379Z,64.47
2023-05-04T21:10:37.978Z,65.39
2023-05-04T21:15:43.905Z,66.14
2023-05-04T21:20:50.289Z,66.35
2023-05-04T21:26:03.180Z,67.07
2023-05-04T21:31:09.693Z,68.29
2023-05-04T21:36:16.446Z,68.80
2023-05-04T21:41:23.009Z,69.01
2023-05-04T21:46:28.642Z,68.50
2023-05-04T21:51:34.137Z,67.06
2023-05-04T21:56:42.102Z,67.64
2023-05-04T22:01:47.699Z,68.06
2023-05-04T22:06:54.134Z,68.30
2023-05-04T22:11:59.763Z,68.85
2023-05-04T22:17:05.232Z,69.38
2023-05-04T22:22:10.995Z,70.14
2023-05-04T22:27:16.630Z,71.25
2023-05-04T22:32:22.272Z,71.39
2023-05-04T22:37:27.636Z,72.01
2023-05-04T22:42:33.126Z,71.82
2023-05-04T22:47:38.857Z,72.12
2023-05-04T22:52:44.809Z,72.80
2023-05-04T22:57:50.372Z,72.78
2023-05-04T23:02:56.790Z,72.70
2023-05-04T23:08:02.310Z,73.02
2023-05-04T23:13:07.848Z,72.97
2023-05-04T23:18:14.014Z,72.99
2023-05-04T23:23:19.706Z,73.48
2023-05-04T23:28:25.269Z,73.32
2023-05-04T23:33:31.035Z,72.46
2023-05-04T23:38:36.619Z,72.92
2023-05-04T23:43:42.223Z,74.12
2023-05-04T23:48:47.942Z,74.98
2023-05-04T23:53:53.785Z,75.37
2023-05-04T23:58:59.629Z,75.24
